Map

Track Data

SID SEASON NUMBER BASIN SUBBASIN NAME ISO_TIME NATURE LAT LON WMO_WIND WMO_PRES WMO_AGENCY TRACK_TYPE DIST2LAND LANDFALL IFLAG USA_AGENCY USA_ATCF_ID USA_LAT USA_LON USA_RECORD USA_STATUS USA_WIND USA_PRES USA_SSHS USA_R34_NE USA_R34_SE USA_R34_SW USA_R34_NW USA_R50_NE USA_R50_SE USA_R50_SW USA_R50_NW USA_R64_NE USA_R64_SE USA_R64_SW USA_R64_NW USA_POCI USA_ROCI USA_RMW USA_EYE TOKYO_LAT TOKYO_LON TOKYO_GRADE TOKYO_WIND TOKYO_PRES TOKYO_R50_DIR TOKYO_R50_LONG TOKYO_R50_SHORT TOKYO_R30_DIR TOKYO_R30_LONG TOKYO_R30_SHORT TOKYO_LAND CMA_LAT CMA_LON CMA_CAT CMA_WIND CMA_PRES HKO_LAT HKO_LON HKO_CAT HKO_WIND HKO_PRES NEWDELHI_LAT NEWDELHI_LON NEWDELHI_GRADE NEWDELHI_WIND NEWDELHI_PRES NEWDELHI_CI NEWDELHI_DP NEWDELHI_POCI REUNION_LAT REUNION_LON REUNION_TYPE REUNION_WIND REUNION_PRES REUNION_TNUM REUNION_CI REUNION_RMW REUNION_R34_NE REUNION_R34_SE REUNION_R34_SW REUNION_R34_NW REUNION_R50_NE REUNION_R50_SE REUNION_R50_SW REUNION_R50_NW REUNION_R64_NE REUNION_R64_SE REUNION_R64_SW REUNION_R64_NW BOM_LAT BOM_LON BOM_TYPE BOM_WIND BOM_PRES BOM_TNUM BOM_CI BOM_RMW BOM_R34_NE BOM_R34_SE BOM_R34_SW BOM_R34_NW BOM_R50_NE BOM_R50_SE BOM_R50_SW BOM_R50_NW BOM_R64_NE BOM_R64_SE BOM_R64_SW BOM_R64_NW BOM_ROCI BOM_POCI BOM_EYE BOM_POS_METHOD BOM_PRES_METHOD NADI_LAT NADI_LON NADI_CAT NADI_WIND NADI_PRES WELLINGTON_LAT WELLINGTON_LON WELLINGTON_WIND WELLINGTON_PRES DS824_LAT DS824_LON DS824_STAGE DS824_WIND DS824_PRES TD9636_LAT TD9636_LON TD9636_STAGE TD9636_WIND TD9636_PRES TD9635_LAT TD9635_LON TD9635_WIND TD9635_PRES TD9635_ROCI NEUMANN_LAT NEUMANN_LON NEUMANN_CLASS NEUMANN_WIND NEUMANN_PRES MLC_LAT MLC_LON MLC_CLASS MLC_WIND MLC_PRES USA_GUST BOM_GUST BOM_GUST_PER REUNION_GUST REUNION_GUST_PER USA_SEAHGT USA_SEARAD_NE USA_SEARAD_SE USA_SEARAD_SW USA_SEARAD_NW STORM_SPEED STORM_DIR
1867042S15071 1867 5 SI MM NOT_NAMED 1867-02-11 06:00:00 NR -14.6000 71.3000 reunion main 1566 1552 _____O________ -1 -14.6000 71.3000 99 9.90000 3 238
1867042S15071 1867 5 SI MM NOT_NAMED 1867-02-11 09:00:00 NR -14.6794 71.1717 main 1552 1528 _____P________ -1 -14.6794 71.1717 99 3 237
1867042S15071 1867 5 SI MM NOT_NAMED 1867-02-11 12:00:00 NR -14.7595 71.0424 main 1528 1518 _____P________ -1 -14.7595 71.0424 99 3 237
1867042S15071 1867 5 SI MM NOT_NAMED 1867-02-11 15:00:00 NR -14.8412 70.9113 main 1518 1503 _____P________ -1 -14.8412 70.9113 99 3 237
1867042S15071 1867 5 SI MM NOT_NAMED 1867-02-11 18:00:00 NR -14.9251 70.7777 main 1503 1479 _____P________ -1 -14.9251 70.7777 99 3 237
1867042S15071 1867 5 SI MM NOT_NAMED 1867-02-11 21:00:00 NR -15.0122 70.6406 main 1479 1465 _____P________ -1 -15.0122 70.6406 99 3 236
1867042S15071 1867 5 SI MM NOT_NAMED 1867-02-12 00:00:00 NR -15.1032 70.4992 main 1465 1450 _____P________ -1 -15.1032 70.4992 99 3 236
1867042S15071 1867 5 SI MM NOT_NAMED 1867-02-12 03:00:00 NR -15.1989 70.3526 main 1450 1426 _____P________ -1 -15.1989 70.3526 99 4 236
1867042S15071 1867 5 SI MM NOT_NAMED 1867-02-12 06:00:00 NR -15.3000 70.2000 reunion main 1426 1402 _____O________ -1 -15.3000 70.2000 99 9.90000 4 235
1867042S15071 1867 5 SI MM NOT_NAMED 1867-02-12 09:00:00 NR -15.4072 70.0408 main 1402 1387 _____P________ -1 -15.4072 70.0408 99 4 235
1867042S15071 1867 5 SI MM NOT_NAMED 1867-02-12 12:00:00 NR -15.5203 69.8755 main 1387 1363 _____P________ -1 -15.5203 69.8755 99 4 234
1867042S15071 1867 5 SI MM NOT_NAMED 1867-02-12 15:00:00 NR -15.6388 69.7049 main 1363 1335 _____P________ -1 -15.6388 69.7049 99 4 234
1867042S15071 1867 5 SI MM NOT_NAMED 1867-02-12 18:00:00 NR -15.7624 69.5297 main 1335 1320 _____P________ -1 -15.7624 69.5297 99 4 234
1867042S15071 1867 5 SI MM NOT_NAMED 1867-02-12 21:00:00 NR -15.8907 69.3509 main 1320 1296 _____P________ -1 -15.8907 69.3509 99 4 233
1867042S15071 1867 5 SI MM NOT_NAMED 1867-02-13 00:00:00 NR -16.0233 69.1691 main 1296 1268 _____P________ -1 -16.0233 69.1691 99 4 233
1867042S15071 1867 5 SI MM NOT_NAMED 1867-02-13 03:00:00 NR -16.1599 68.9852 main 1268 1244 _____P________ -1 -16.1599 68.9852 99 5 232
1867042S15071 1867 5 SI MM NOT_NAMED 1867-02-13 06:00:00 NR -16.3000 68.8000 reunion main 1244 1220 _____O________ -1 -16.3000 68.8000 99 9.90000 5 232
1867042S15071 1867 5 SI MM NOT_NAMED 1867-02-13 09:00:00 NR -16.4407 68.6133 main 1220 1191 _____P________ -1 -16.4407 68.6133 99 5 232
1867042S15071 1867 5 SI MM NOT_NAMED 1867-02-13 12:00:00 NR -16.5856 68.4240 main 1191 1168 _____P________ -1 -16.5856 68.4240 99 5 231
1867042S15071 1867 5 SI MM NOT_NAMED 1867-02-13 15:00:00 NR -16.7339 68.2333 main 1168 1149 _____P________ -1 -16.7339 68.2333 99 5 231
1867042S15071 1867 5 SI MM NOT_NAMED 1867-02-13 18:00:00 NR -16.8850 68.0424 main 1140 1126 _____P________ -1 -16.8850 68.0424 99 5 230
1867042S15071 1867 5 SI MM NOT_NAMED 1867-02-13 21:00:00 NR -17.0379 67.8524 main 1126 1098 _____P________ -1 -17.0379 67.8524 99 5 230
1867042S15071 1867 5 SI MM NOT_NAMED 1867-02-14 00:00:00 NR -17.1919 67.6646 main 1098 1074 _____P________ -1 -17.1919 67.6646 99 5 229
1867042S15071 1867 5 SI MM NOT_NAMED 1867-02-14 03:00:00 NR -17.3462 67.4800 main 1074 1047 _____P________ -1 -17.3462 67.4800 99 5 228
1867042S15071 1867 5 SI MM NOT_NAMED 1867-02-14 06:00:00 NR -17.5000 67.3000 reunion main 1047 1023 _____O________ -1 -17.5000 67.3000 99 9.90000 4 229
1867042S15071 1867 5 SI MM NOT_NAMED 1867-02-14 09:00:00 NR -17.6383 67.1334 main 1023 1006 _____P________ -1 -17.6383 67.1334 99 4 228
1867042S15071 1867 5 SI MM NOT_NAMED 1867-02-14 12:00:00 NR -17.7752 66.9718 main 1006 982 _____P________ -1 -17.7752 66.9718 99 4 228
1867042S15071 1867 5 SI MM NOT_NAMED 1867-02-14 15:00:00 NR -17.9131 66.8133 main 982 969 _____P________ -1 -17.9131 66.8133 99 4 227
1867042S15071 1867 5 SI MM NOT_NAMED 1867-02-14 18:00:00 NR -18.0544 66.6560 main 966 942 _____P________ -1 -18.0544 66.6560 99 4 226
1867042S15071 1867 5 SI MM NOT_NAMED 1867-02-14 21:00:00 NR -18.2014 66.4980 main 942 919 _____P________ -1 -18.2014 66.4980 99 4 225
1867042S15071 1867 5 SI MM NOT_NAMED 1867-02-15 00:00:00 NR -18.3564 66.3373 main 916 903 _____P________ -1 -18.3564 66.3373 99 4 224
1867042S15071 1867 5 SI MM NOT_NAMED 1867-02-15 03:00:00 NR -18.5219 66.1719 main 903 877 _____P________ -1 -18.5219 66.1719 99 5 223
1867042S15071 1867 5 SI MM NOT_NAMED 1867-02-15 06:00:00 NR -18.7000 66.0000 reunion main 877 852 _____O________ -1 -18.7000 66.0000 99 9.90000 5 222
1867042S15071 1867 5 SI MM NOT_NAMED 1867-02-15 09:00:00 NR -18.9068 65.8029 main 852 827 _____P________ -1 -18.9068 65.8029 99 6 222
1867042S15071 1867 5 SI MM NOT_NAMED 1867-02-15 12:00:00 NR -19.1275 65.5981 main 827 802 _____P________ -1 -19.1275 65.5981 99 6 221
1867042S15071 1867 5 SI MM NOT_NAMED 1867-02-15 15:00:00 NR -19.3576 65.3888 main 801 777 _____P________ -1 -19.3576 65.3888 99 6 220
1867042S15071 1867 5 SI MM NOT_NAMED 1867-02-15 18:00:00 NR -19.5930 65.1788 main 777 754 _____P________ -1 -19.5930 65.1788 99 6 220
1867042S15071 1867 5 SI MM NOT_NAMED 1867-02-15 21:00:00 NR -19.8292 64.9713 main 754 731 _____P________ -1 -19.8292 64.9713 99 6 219
1867042S15071 1867 5 SI MM NOT_NAMED 1867-02-16 00:00:00 NR -20.0619 64.7699 main 730 709 _____P________ -1 -20.0619 64.7699 99 6 219
1867042S15071 1867 5 SI MM NOT_NAMED 1867-02-16 03:00:00 NR -20.2869 64.5783 main 709 688 _____P________ -1 -20.2869 64.5783 99 6 218
1867042S15071 1867 5 SI MM NOT_NAMED 1867-02-16 06:00:00 NR -20.5000 64.4000 reunion main 688 677 _____O________ -1 -20.5000 64.4000 99 9.90000 5 219
1867042S15071 1867 5 SI MM NOT_NAMED 1867-02-16 09:00:00 NR -20.6778 64.2463 main 667 658 _____P________ -1 -20.6778 64.2463 99 4 219
1867042S15071 1867 5 SI MM NOT_NAMED 1867-02-16 12:00:00 NR -20.8442 64.1055 main 658 648 _____P________ -1 -20.8442 64.1055 99 4 218
1867042S15071 1867 5 SI MM NOT_NAMED 1867-02-16 15:00:00 NR -21.0027 63.9753 main 649 639 _____P________ -1 -21.0027 63.9753 99 4 217
1867042S15071 1867 5 SI MM NOT_NAMED 1867-02-16 18:00:00 NR -21.1568 63.8532 main 642 623 _____P________ -1 -21.1568 63.8532 99 4 216
1867042S15071 1867 5 SI MM NOT_NAMED 1867-02-16 21:00:00 NR -21.3102 63.7371 main 623 614 _____P________ -1 -21.3102 63.7371 99 4 215
1867042S15071 1867 5 SI MM NOT_NAMED 1867-02-17 00:00:00 NR -21.4661 63.6244 main 617 609 _____P________ -1 -21.4661 63.6244 99 4 214
1867042S15071 1867 5 SI MM NOT_NAMED 1867-02-17 03:00:00 NR -21.6283 63.5128 main 609 601 _____P________ -1 -21.6283 63.5128 99 4 212
1867042S15071 1867 5 SI MM NOT_NAMED 1867-02-17 06:00:00 NR -21.8000 63.4000 reunion main 604 597 _____O________ -1 -21.8000 63.4000 99 9.90000 4 211
1867042S15071 1867 5 SI MM NOT_NAMED 1867-02-17 09:00:00 NR -21.9997 63.2675 main 601 588 _____P________ -1 -21.9997 63.2675 99 5 211
1867042S15071 1867 5 SI MM NOT_NAMED 1867-02-17 12:00:00 NR -22.2085 63.1340 main 588 587 _____P________ -1 -22.2085 63.1340 99 5 210
1867042S15071 1867 5 SI MM NOT_NAMED 1867-02-17 15:00:00 NR -22.4237 63.0012 main 587 582 _____P________ -1 -22.4237 63.0012 99 5 209
1867042S15071 1867 5 SI MM NOT_NAMED 1867-02-17 18:00:00 NR -22.6426 62.8705 main 586 581 _____P________ -1 -22.6426 62.8705 99 5 208
1867042S15071 1867 5 SI MM NOT_NAMED 1867-02-17 21:00:00 NR -22.8624 62.7434 main 581 577 _____P________ -1 -22.8624 62.7434 99 5 208
1867042S15071 1867 5 SI MM NOT_NAMED 1867-02-18 00:00:00 NR -23.0804 62.6216 main 583 579 _____P________ -1 -23.0804 62.6216 99 5 207
1867042S15071 1867 5 SI MM NOT_NAMED 1867-02-18 03:00:00 NR -23.2938 62.5066 main 585 582 _____P________ -1 -23.2938 62.5066 99 5 205
1867042S15071 1867 5 SI MM NOT_NAMED 1867-02-18 06:00:00 NR -23.5000 62.4000 reunion main 589 587 _____O________ -1 -23.5000 62.4000 99 9.90000 4 205
1867042S15071 1867 5 SI MM NOT_NAMED 1867-02-18 09:00:00 NR -23.6968 62.3030 main 593 592 _____P________ -1 -23.6968 62.3030 99 4 204
1867042S15071 1867 5 SI MM NOT_NAMED 1867-02-18 12:00:00 NR -23.8849 62.2148 main 599 598 _____P________ -1 -23.8849 62.2148 99 4 203
1867042S15071 1867 5 SI MM NOT_NAMED 1867-02-18 15:00:00 NR -24.0655 62.1342 main 605 605 _____P________ -1 -24.0655 62.1342 99 4 202
1867042S15071 1867 5 SI MM NOT_NAMED 1867-02-18 18:00:00 NR -24.2399 62.0599 main 612 612 _____P________ -1 -24.2399 62.0599 99 4 200
1867042S15071 1867 5 SI MM NOT_NAMED 1867-02-18 21:00:00 NR -24.4093 61.9906 main 620 620 _____P________ -1 -24.4093 61.9906 99 4 201
1867042S15071 1867 5 SI MM NOT_NAMED 1867-02-19 00:00:00 NR -24.5749 61.9250 main 629 629 _____P________ -1 -24.5749 61.9250 99 4 200
1867042S15071 1867 5 SI MM NOT_NAMED 1867-02-19 03:00:00 NR -24.7381 61.8619 main 637 637 _____P________ -1 -24.7381 61.8619 99 3 198
1867042S15071 1867 5 SI MM NOT_NAMED 1867-02-19 06:00:00 NR -24.9000 61.8000 reunion main 646 _____O________ -1 -24.9000 61.8000 99 9.90000 3 200

About IBTrACS Database

This database is a web-friendly format of International Best Track Archive for Climate Stewardship (IBTrACS), a global best track data archive curated by NOAA dating back to 1842.

Updated: 2021-10-21